sensor_id;sensor_type;location;lat;lon;timestamp;P1;durP1;ratioP1;P2;durP2;ratioP2
253;SDS011;590;48.772;8.846;2023-03-15T00:01:15;0.77;;;0.53;;
253;SDS011;590;48.772;8.846;2023-03-15T00:03:45;0.63;;;0.50;;
253;SDS011;590;48.772;8.846;2023-03-15T00:06:13;0.50;;;0.43;;
253;SDS011;590;48.772;8.846;2023-03-15T00:08:42;0.67;;;0.60;;
253;SDS011;590;48.772;8.846;2023-03-15T00:11:12;0.60;;;0.43;;
253;SDS011;590;48.772;8.846;2023-03-15T00:13:40;0.50;;;0.50;;
253;SDS011;590;48.772;8.846;2023-03-15T00:16:10;0.60;;;0.50;;
253;SDS011;590;48.772;8.846;2023-03-15T00:18:43;0.60;;;0.60;;
253;SDS011;590;48.772;8.846;2023-03-15T00:21:12;0.70;;;0.63;;
253;SDS011;590;48.772;8.846;2023-03-15T00:23:40;0.90;;;0.70;;
253;SDS011;590;48.772;8.846;2023-03-15T00:26:09;1.73;;;0.70;;
253;SDS011;590;48.772;8.846;2023-03-15T00:28:37;0.90;;;0.70;;
253;SDS011;590;48.772;8.846;2023-03-15T00:31:06;1.30;;;0.80;;
253;SDS011;590;48.772;8.846;2023-03-15T00:33:37;0.60;;;0.57;;
253;SDS011;590;48.772;8.846;2023-03-15T00:36:05;0.83;;;0.57;;
253;SDS011;590;48.772;8.846;2023-03-15T00:38:35;1.03;;;0.90;;
253;SDS011;590;48.772;8.846;2023-03-15T00:41:05;0.60;;;0.40;;
253;SDS011;590;48.772;8.846;2023-03-15T00:43:34;1.07;;;0.60;;
253;SDS011;590;48.772;8.846;2023-03-15T00:46:03;1.00;;;0.60;;
253;SDS011;590;48.772;8.846;2023-03-15T00:48:32;0.90;;;0.77;;
253;SDS011;590;48.772;8.846;2023-03-15T00:51:06;0.80;;;0.60;;
253;SDS011;590;48.772;8.846;2023-03-15T00:53:35;1.17;;;0.60;;
253;SDS011;590;48.772;8.846;2023-03-15T00:56:05;0.80;;;0.60;;
253;SDS011;590;48.772;8.846;2023-03-15T00:58:35;0.97;;;0.90;;
253;SDS011;590;48.772;8.846;2023-03-15T01:01:04;0.73;;;0.73;;
253;SDS011;590;48.772;8.846;2023-03-15T01:03:33;0.60;;;0.60;;
253;SDS011;590;48.772;8.846;2023-03-15T01:06:07;0.60;;;0.50;;
253;SDS011;590;48.772;8.846;2023-03-15T01:08:37;0.70;;;0.70;;
253;SDS011;590;48.772;8.846;2023-03-15T01:11:06;0.90;;;0.80;;
253;SDS011;590;48.772;8.846;2023-03-15T01:13:35;0.93;;;0.80;;
253;SDS011;590;48.772;8.846;2023-03-15T01:16:04;0.70;;;0.50;;
253;SDS011;590;48.772;8.846;2023-03-15T01:18:33;0.80;;;0.50;;
253;SDS011;590;48.772;8.846;2023-03-15T01:21:04;0.67;;;0.63;;
253;SDS011;590;48.772;8.846;2023-03-15T01:23:34;0.80;;;0.50;;
253;SDS011;590;48.772;8.846;2023-03-15T01:26:03;1.00;;;0.80;;
253;SDS011;590;48.772;8.846;2023-03-15T01:28:32;0.60;;;0.57;;
253;SDS011;590;48.772;8.846;2023-03-15T01:31:01;0.90;;;0.57;;
253;SDS011;590;48.772;8.846;2023-03-15T01:33:29;0.97;;;0.50;;
253;SDS011;590;48.772;8.846;2023-03-15T01:35:57;0.90;;;0.60;;
253;SDS011;590;48.772;8.846;2023-03-15T01:38:28;0.77;;;0.60;;
253;SDS011;590;48.772;8.846;2023-03-15T01:40:56;0.50;;;0.43;;
253;SDS011;590;48.772;8.846;2023-03-15T01:43:25;0.93;;;0.60;;
253;SDS011;590;48.772;8.846;2023-03-15T01:46:11;1.43;;;0.73;;
253;SDS011;590;48.772;8.846;2023-03-15T01:48:49;0.57;;;0.57;;
253;SDS011;590;48.772;8.846;2023-03-15T01:51:23;1.00;;;0.70;;
253;SDS011;590;48.772;8.846;2023-03-15T01:53:56;1.33;;;0.60;;
253;SDS011;590;48.772;8.846;2023-03-15T01:56:27;0.97;;;0.60;;
253;SDS011;590;48.772;8.846;2023-03-15T01:58:56;0.70;;;0.70;;
253;SDS011;590;48.772;8.846;2023-03-15T02:01:27;0.70;;;0.70;;
253;SDS011;590;48.772;8.846;2023-03-15T02:03:57;0.87;;;0.60;;
253;SDS011;590;48.772;8.846;2023-03-15T02:06:29;1.20;;;0.70;;
253;SDS011;590;48.772;8.846;2023-03-15T02:09:02;1.13;;;0.60;;
253;SDS011;590;48.772;8.846;2023-03-15T02:11:33;0.60;;;0.60;;
253;SDS011;590;48.772;8.846;2023-03-15T02:14:02;0.90;;;0.67;;
253;SDS011;590;48.772;8.846;2023-03-15T02:16:31;0.90;;;0.60;;
253;SDS011;590;48.772;8.846;2023-03-15T02:19:00;1.00;;;0.77;;
253;SDS011;590;48.772;8.846;2023-03-15T02:21:32;0.70;;;0.60;;
253;SDS011;590;48.772;8.846;2023-03-15T02:24:13;0.90;;;0.70;;
253;SDS011;590;48.772;8.846;2023-03-15T02:26:52;0.83;;;0.70;;
253;SDS011;590;48.772;8.846;2023-03-15T02:29:23;1.27;;;0.57;;
253;SDS011;590;48.772;8.846;2023-03-15T02:31:54;1.30;;;0.50;;
253;SDS011;590;48.772;8.846;2023-03-15T02:34:24;0.60;;;0.60;;
253;SDS011;590;48.772;8.846;2023-03-15T02:36:52;1.00;;;0.57;;
253;SDS011;590;48.772;8.846;2023-03-15T02:39:21;1.70;;;0.70;;
253;SDS011;590;48.772;8.846;2023-03-15T02:41:50;0.90;;;0.50;;
253;SDS011;590;48.772;8.846;2023-03-15T02:44:20;1.20;;;0.60;;
253;SDS011;590;48.772;8.846;2023-03-15T02:46:53;0.70;;;0.70;;
253;SDS011;590;48.772;8.846;2023-03-15T02:49:25;1.27;;;0.73;;
253;SDS011;590;48.772;8.846;2023-03-15T02:51:56;0.57;;;0.50;;
253;SDS011;590;48.772;8.846;2023-03-15T02:54:24;0.70;;;0.43;;
253;SDS011;590;48.772;8.846;2023-03-15T02:56:52;0.70;;;0.60;;
253;SDS011;590;48.772;8.846;2023-03-15T02:59:20;0.70;;;0.57;;
253;SDS011;590;48.772;8.846;2023-03-15T03:01:49;0.80;;;0.60;;
253;SDS011;590;48.772;8.846;2023-03-15T03:04:17;0.83;;;0.50;;
253;SDS011;590;48.772;8.846;2023-03-15T03:06:46;1.17;;;0.97;;
253;SDS011;590;48.772;8.846;2023-03-15T03:09:14;0.90;;;0.60;;
253;SDS011;590;48.772;8.846;2023-03-15T03:11:42;1.07;;;0.70;;
253;SDS011;590;48.772;8.846;2023-03-15T03:14:10;1.23;;;0.70;;
253;SDS011;590;48.772;8.846;2023-03-15T03:16:40;0.53;;;0.50;;
253;SDS011;590;48.772;8.846;2023-03-15T03:22:03;0.80;;;0.70;;
253;SDS011;590;48.772;8.846;2023-03-15T03:24:31;1.63;;;0.60;;
253;SDS011;590;48.772;8.846;2023-03-15T03:26:59;1.60;;;0.93;;
253;SDS011;590;48.772;8.846;2023-03-15T03:29:27;0.80;;;0.80;;
253;SDS011;590;48.772;8.846;2023-03-15T03:31:55;1.60;;;0.83;;
253;SDS011;590;48.772;8.846;2023-03-15T03:34:24;0.90;;;0.60;;
253;SDS011;590;48.772;8.846;2023-03-15T03:36:53;0.80;;;0.60;;
253;SDS011;590;48.772;8.846;2023-03-15T03:39:22;1.80;;;0.60;;
253;SDS011;590;48.772;8.846;2023-03-15T03:41:50;1.30;;;0.77;;
253;SDS011;590;48.772;8.846;2023-03-15T03:44:18;1.13;;;0.70;;
253;SDS011;590;48.772;8.846;2023-03-15T03:46:48;1.47;;;0.70;;
253;SDS011;590;48.772;8.846;2023-03-15T03:49:29;0.67;;;0.60;;
253;SDS011;590;48.772;8.846;2023-03-15T03:51:59;1.00;;;0.67;;
253;SDS011;590;48.772;8.846;2023-03-15T03:54:31;0.77;;;0.60;;
253;SDS011;590;48.772;8.846;2023-03-15T03:56:59;1.17;;;0.60;;
253;SDS011;590;48.772;8.846;2023-03-15T03:59:28;0.93;;;0.80;;
253;SDS011;590;48.772;8.846;2023-03-15T04:01:56;1.50;;;1.00;;
253;SDS011;590;48.772;8.846;2023-03-15T04:04:24;0.80;;;0.67;;
253;SDS011;590;48.772;8.846;2023-03-15T04:06:52;0.80;;;0.60;;
253;SDS011;590;48.772;8.846;2023-03-15T04:09:22;0.87;;;0.70;;
253;SDS011;590;48.772;8.846;2023-03-15T04:11:51;0.93;;;0.50;;
253;SDS011;590;48.772;8.846;2023-03-15T04:14:19;1.33;;;0.80;;
253;SDS011;590;48.772;8.846;2023-03-15T04:16:47;0.80;;;0.70;;
253;SDS011;590;48.772;8.846;2023-03-15T04:19:15;0.67;;;0.50;;
253;SDS011;590;48.772;8.846;2023-03-15T04:21:43;0.93;;;0.80;;
253;SDS011;590;48.772;8.846;2023-03-15T04:24:13;0.67;;;0.60;;
253;SDS011;590;48.772;8.846;2023-03-15T04:26:42;0.70;;;0.70;;
253;SDS011;590;48.772;8.846;2023-03-15T04:29:10;1.50;;;0.90;;
253;SDS011;590;48.772;8.846;2023-03-15T04:31:40;0.90;;;0.80;;
253;SDS011;590;48.772;8.846;2023-03-15T04:34:08;1.53;;;0.83;;
253;SDS011;590;48.772;8.846;2023-03-15T04:36:36;0.83;;;0.83;;
253;SDS011;590;48.772;8.846;2023-03-15T04:39:04;1.03;;;0.60;;
253;SDS011;590;48.772;8.846;2023-03-15T04:41:33;0.77;;;0.60;;
253;SDS011;590;48.772;8.846;2023-03-15T04:44:03;1.10;;;0.80;;
253;SDS011;590;48.772;8.846;2023-03-15T04:46:31;1.30;;;0.90;;
253;SDS011;590;48.772;8.846;2023-03-15T04:49:00;1.10;;;0.90;;
253;SDS011;590;48.772;8.846;2023-03-15T04:51:30;1.00;;;0.67;;
253;SDS011;590;48.772;8.846;2023-03-15T04:53:59;1.90;;;1.00;;
253;SDS011;590;48.772;8.846;2023-03-15T04:56:28;0.93;;;0.70;;
253;SDS011;590;48.772;8.846;2023-03-15T04:58:56;1.13;;;0.70;;
253;SDS011;590;48.772;8.846;2023-03-15T05:01:28;1.97;;;0.80;;
253;SDS011;590;48.772;8.846;2023-03-15T05:03:57;1.60;;;0.70;;
253;SDS011;590;48.772;8.846;2023-03-15T05:06:26;1.33;;;0.87;;
253;SDS011;590;48.772;8.846;2023-03-15T05:08:55;1.27;;;0.73;;
253;SDS011;590;48.772;8.846;2023-03-15T05:11:23;1.27;;;0.93;;
253;SDS011;590;48.772;8.846;2023-03-15T05:13:51;0.60;;;0.47;;
253;SDS011;590;48.772;8.846;2023-03-15T05:16:20;1.40;;;0.90;;
253;SDS011;590;48.772;8.846;2023-03-15T05:18:49;1.07;;;0.60;;
253;SDS011;590;48.772;8.846;2023-03-15T05:21:19;1.10;;;0.77;;
253;SDS011;590;48.772;8.846;2023-03-15T05:23:47;1.23;;;0.80;;
253;SDS011;590;48.772;8.846;2023-03-15T05:26:15;0.90;;;0.73;;
253;SDS011;590;48.772;8.846;2023-03-15T05:28:43;0.80;;;0.70;;
253;SDS011;590;48.772;8.846;2023-03-15T05:31:11;1.37;;;0.80;;
253;SDS011;590;48.772;8.846;2023-03-15T05:33:39;2.10;;;0.77;;
253;SDS011;590;48.772;8.846;2023-03-15T05:36:14;2.53;;;1.30;;
253;SDS011;590;48.772;8.846;2023-03-15T05:38:43;0.70;;;0.60;;
253;SDS011;590;48.772;8.846;2023-03-15T05:41:11;1.23;;;1.00;;
253;SDS011;590;48.772;8.846;2023-03-15T05:43:43;1.07;;;0.80;;
253;SDS011;590;48.772;8.846;2023-03-15T05:46:11;0.77;;;0.70;;
253;SDS011;590;48.772;8.846;2023-03-15T05:48:40;1.40;;;1.00;;
253;SDS011;590;48.772;8.846;2023-03-15T05:51:08;2.30;;;0.70;;
253;SDS011;590;48.772;8.846;2023-03-15T05:53:37;1.07;;;0.80;;
253;SDS011;590;48.772;8.846;2023-03-15T05:56:06;1.40;;;0.80;;
253;SDS011;590;48.772;8.846;2023-03-15T05:58:34;1.43;;;0.90;;
253;SDS011;590;48.772;8.846;2023-03-15T06:01:03;1.90;;;0.83;;
253;SDS011;590;48.772;8.846;2023-03-15T06:03:31;1.13;;;0.90;;
253;SDS011;590;48.772;8.846;2023-03-15T06:06:00;1.33;;;0.87;;
253;SDS011;590;48.772;8.846;2023-03-15T06:08:28;1.10;;;0.80;;
253;SDS011;590;48.772;8.846;2023-03-15T06:10:58;1.20;;;0.93;;
253;SDS011;590;48.772;8.846;2023-03-15T06:13:26;0.93;;;0.90;;
253;SDS011;590;48.772;8.846;2023-03-15T06:15:54;1.17;;;0.90;;
253;SDS011;590;48.772;8.846;2023-03-15T06:18:22;1.77;;;1.10;;
253;SDS011;590;48.772;8.846;2023-03-15T06:20:50;1.60;;;1.23;;
253;SDS011;590;48.772;8.846;2023-03-15T06:23:18;1.83;;;1.20;;
253;SDS011;590;48.772;8.846;2023-03-15T06:25:46;1.03;;;0.90;;
253;SDS011;590;48.772;8.846;2023-03-15T06:28:16;2.57;;;1.10;;
253;SDS011;590;48.772;8.846;2023-03-15T06:30:44;1.73;;;1.10;;
253;SDS011;590;48.772;8.846;2023-03-15T06:33:12;1.17;;;1.07;;
253;SDS011;590;48.772;8.846;2023-03-15T06:35:40;1.13;;;1.10;;
253;SDS011;590;48.772;8.846;2023-03-15T06:38:08;1.47;;;1.00;;
253;SDS011;590;48.772;8.846;2023-03-15T06:40:37;1.47;;;0.70;;
253;SDS011;590;48.772;8.846;2023-03-15T06:43:05;1.30;;;1.13;;
253;SDS011;590;48.772;8.846;2023-03-15T06:45:35;2.33;;;1.60;;
253;SDS011;590;48.772;8.846;2023-03-15T06:48:03;1.20;;;1.00;;
253;SDS011;590;48.772;8.846;2023-03-15T06:50:31;1.07;;;1.07;;
253;SDS011;590;48.772;8.846;2023-03-15T06:53:12;1.53;;;1.10;;
253;SDS011;590;48.772;8.846;2023-03-15T06:55:40;1.80;;;1.37;;
253;SDS011;590;48.772;8.846;2023-03-15T06:58:09;1.03;;;0.97;;
253;SDS011;590;48.772;8.846;2023-03-15T07:00:38;1.60;;;1.20;;
253;SDS011;590;48.772;8.846;2023-03-15T07:03:07;1.20;;;1.10;;
253;SDS011;590;48.772;8.846;2023-03-15T07:05:35;1.20;;;1.10;;
253;SDS011;590;48.772;8.846;2023-03-15T07:08:03;1.77;;;1.30;;
253;SDS011;590;48.772;8.846;2023-03-15T07:10:32;1.23;;;1.20;;
253;SDS011;590;48.772;8.846;2023-03-15T07:13:00;2.13;;;1.43;;
253;SDS011;590;48.772;8.846;2023-03-15T07:15:30;2.57;;;1.23;;
253;SDS011;590;48.772;8.846;2023-03-15T07:18:00;1.57;;;1.10;;
253;SDS011;590;48.772;8.846;2023-03-15T07:20:27;1.53;;;1.43;;
253;SDS011;590;48.772;8.846;2023-03-15T07:22:56;2.97;;;1.33;;
253;SDS011;590;48.772;8.846;2023-03-15T07:25:24;1.23;;;1.23;;
253;SDS011;590;48.772;8.846;2023-03-15T07:27:53;1.90;;;1.17;;
253;SDS011;590;48.772;8.846;2023-03-15T07:30:20;1.70;;;1.10;;
253;SDS011;590;48.772;8.846;2023-03-15T07:32:49;1.40;;;1.33;;
253;SDS011;590;48.772;8.846;2023-03-15T07:35:18;1.27;;;1.03;;
253;SDS011;590;48.772;8.846;2023-03-15T07:37:46;1.67;;;1.17;;
253;SDS011;590;48.772;8.846;2023-03-15T07:40:15;1.60;;;1.10;;
253;SDS011;590;48.772;8.846;2023-03-15T07:42:43;1.03;;;0.90;;
253;SDS011;590;48.772;8.846;2023-03-15T07:45:11;1.83;;;1.20;;
253;SDS011;590;48.772;8.846;2023-03-15T07:47:39;1.07;;;0.90;;
253;SDS011;590;48.772;8.846;2023-03-15T07:50:07;1.50;;;1.30;;
253;SDS011;590;48.772;8.846;2023-03-15T07:52:40;1.70;;;1.13;;
253;SDS011;590;48.772;8.846;2023-03-15T07:55:08;1.10;;;1.10;;
253;SDS011;590;48.772;8.846;2023-03-15T07:57:36;1.87;;;1.20;;
253;SDS011;590;48.772;8.846;2023-03-15T08:00:04;2.07;;;1.17;;
253;SDS011;590;48.772;8.846;2023-03-15T08:02:34;1.47;;;1.37;;
253;SDS011;590;48.772;8.846;2023-03-15T08:05:03;2.00;;;1.57;;
253;SDS011;590;48.772;8.846;2023-03-15T08:07:31;2.50;;;1.10;;
253;SDS011;590;48.772;8.846;2023-03-15T08:10:02;1.90;;;1.10;;
253;SDS011;590;48.772;8.846;2023-03-15T08:12:31;1.30;;;1.03;;
253;SDS011;590;48.772;8.846;2023-03-15T08:15:00;1.27;;;1.00;;
253;SDS011;590;48.772;8.846;2023-03-15T08:17:28;2.07;;;1.27;;
253;SDS011;590;48.772;8.846;2023-03-15T08:19:56;2.10;;;1.03;;
253;SDS011;590;48.772;8.846;2023-03-15T08:22:24;1.40;;;0.90;;
253;SDS011;590;48.772;8.846;2023-03-15T08:24:52;1.50;;;0.87;;
253;SDS011;590;48.772;8.846;2023-03-15T08:27:23;1.33;;;1.03;;
253;SDS011;590;48.772;8.846;2023-03-15T08:29:51;1.23;;;1.10;;
253;SDS011;590;48.772;8.846;2023-03-15T08:32:19;1.30;;;0.90;;
253;SDS011;590;48.772;8.846;2023-03-15T08:34:47;2.30;;;1.10;;
253;SDS011;590;48.772;8.846;2023-03-15T08:37:18;0.80;;;0.80;;
253;SDS011;590;48.772;8.846;2023-03-15T08:39:46;1.40;;;1.17;;
253;SDS011;590;48.772;8.846;2023-03-15T08:42:14;1.20;;;1.03;;
253;SDS011;590;48.772;8.846;2023-03-15T08:44:52;1.17;;;0.93;;
253;SDS011;590;48.772;8.846;2023-03-15T08:47:24;1.30;;;1.03;;
253;SDS011;590;48.772;8.846;2023-03-15T08:49:52;0.87;;;0.80;;
253;SDS011;590;48.772;8.846;2023-03-15T08:52:20;1.43;;;1.07;;
253;SDS011;590;48.772;8.846;2023-03-15T08:54:49;1.05;;;1.00;;
253;SDS011;590;48.772;8.846;2023-03-15T08:57:17;0.90;;;0.90;;
253;SDS011;590;48.772;8.846;2023-03-15T08:59:45;1.17;;;0.93;;
253;SDS011;590;48.772;8.846;2023-03-15T09:02:14;1.90;;;1.27;;
253;SDS011;590;48.772;8.846;2023-03-15T09:04:42;1.53;;;0.80;;
253;SDS011;590;48.772;8.846;2023-03-15T09:07:10;1.10;;;1.00;;
253;SDS011;590;48.772;8.846;2023-03-15T09:09:38;0.93;;;0.83;;
253;SDS011;590;48.772;8.846;2023-03-15T09:12:07;0.87;;;0.80;;
253;SDS011;590;48.772;8.846;2023-03-15T09:14:35;1.17;;;1.10;;
253;SDS011;590;48.772;8.846;2023-03-15T09:17:03;1.03;;;0.93;;
253;SDS011;590;48.772;8.846;2023-03-15T09:19:33;1.13;;;0.90;;
253;SDS011;590;48.772;8.846;2023-03-15T09:22:01;1.27;;;1.00;;
253;SDS011;590;48.772;8.846;2023-03-15T09:24:48;1.27;;;1.10;;
253;SDS011;590;48.772;8.846;2023-03-15T09:27:17;1.00;;;0.90;;
253;SDS011;590;48.772;8.846;2023-03-15T09:29:45;1.00;;;0.90;;
253;SDS011;590;48.772;8.846;2023-03-15T09:32:13;1.00;;;0.90;;
253;SDS011;590;48.772;8.846;2023-03-15T09:34:43;1.30;;;1.20;;
253;SDS011;590;48.772;8.846;2023-03-15T09:37:11;1.20;;;1.03;;
253;SDS011;590;48.772;8.846;2023-03-15T09:39:39;0.93;;;0.90;;
253;SDS011;590;48.772;8.846;2023-03-15T09:42:10;1.00;;;0.87;;
253;SDS011;590;48.772;8.846;2023-03-15T09:45:05;0.83;;;0.80;;
253;SDS011;590;48.772;8.846;2023-03-15T09:47:41;1.70;;;1.10;;
253;SDS011;590;48.772;8.846;2023-03-15T09:50:20;1.63;;;0.80;;
253;SDS011;590;48.772;8.846;2023-03-15T09:52:53;0.93;;;0.83;;
253;SDS011;590;48.772;8.846;2023-03-15T09:55:24;1.13;;;0.80;;
253;SDS011;590;48.772;8.846;2023-03-15T09:57:56;1.00;;;0.77;;
253;SDS011;590;48.772;8.846;2023-03-15T10:00:32;1.17;;;1.10;;
253;SDS011;590;48.772;8.846;2023-03-15T10:03:04;1.30;;;1.30;;
253;SDS011;590;48.772;8.846;2023-03-15T10:05:38;1.07;;;0.97;;
253;SDS011;590;48.772;8.846;2023-03-15T10:08:09;1.80;;;0.90;;
253;SDS011;590;48.772;8.846;2023-03-15T10:10:41;1.87;;;0.80;;
253;SDS011;590;48.772;8.846;2023-03-15T10:13:21;1.30;;;0.90;;
253;SDS011;590;48.772;8.846;2023-03-15T10:16:01;1.23;;;0.97;;
253;SDS011;590;48.772;8.846;2023-03-15T10:18:41;1.77;;;0.77;;
253;SDS011;590;48.772;8.846;2023-03-15T10:21:24;0.77;;;0.70;;
253;SDS011;590;48.772;8.846;2023-03-15T10:23:59;1.87;;;1.00;;
253;SDS011;590;48.772;8.846;2023-03-15T10:26:31;0.97;;;0.80;;
253;SDS011;590;48.772;8.846;2023-03-15T10:29:03;0.97;;;0.90;;
253;SDS011;590;48.772;8.846;2023-03-15T10:31:40;0.93;;;0.83;;
253;SDS011;590;48.772;8.846;2023-03-15T10:34:12;3.10;;;1.37;;
253;SDS011;590;48.772;8.846;2023-03-15T10:36:47;1.90;;;1.00;;
253;SDS011;590;48.772;8.846;2023-03-15T10:39:20;1.23;;;0.60;;
253;SDS011;590;48.772;8.846;2023-03-15T10:41:48;0.93;;;0.60;;
253;SDS011;590;48.772;8.846;2023-03-15T10:44:18;1.20;;;1.10;;
253;SDS011;590;48.772;8.846;2023-03-15T10:46:58;0.60;;;0.47;;
253;SDS011;590;48.772;8.846;2023-03-15T10:49:35;1.03;;;0.80;;
253;SDS011;590;48.772;8.846;2023-03-15T10:52:06;0.77;;;0.70;;
253;SDS011;590;48.772;8.846;2023-03-15T10:54:53;0.73;;;0.50;;
253;SDS011;590;48.772;8.846;2023-03-15T10:57:31;2.30;;;1.10;;
253;SDS011;590;48.772;8.846;2023-03-15T11:00:06;1.00;;;0.73;;
253;SDS011;590;48.772;8.846;2023-03-15T11:02:49;3.10;;;1.00;;
253;SDS011;590;48.772;8.846;2023-03-15T11:05:18;0.90;;;0.73;;
253;SDS011;590;48.772;8.846;2023-03-15T11:07:55;3.03;;;1.00;;
253;SDS011;590;48.772;8.846;2023-03-15T11:10:24;0.60;;;0.60;;
253;SDS011;590;48.772;8.846;2023-03-15T11:13:09;0.70;;;0.67;;
253;SDS011;590;48.772;8.846;2023-03-15T11:15:47;1.33;;;0.77;;
253;SDS011;590;48.772;8.846;2023-03-15T11:18:24;7.80;;;1.30;;
253;SDS011;590;48.772;8.846;2023-03-15T11:20:54;0.90;;;0.80;;
253;SDS011;590;48.772;8.846;2023-03-15T11:23:25;0.83;;;0.50;;
253;SDS011;590;48.772;8.846;2023-03-15T11:25:56;1.60;;;0.60;;
253;SDS011;590;48.772;8.846;2023-03-15T11:28:25;0.80;;;0.53;;
253;SDS011;590;48.772;8.846;2023-03-15T11:30:56;0.80;;;0.70;;
253;SDS011;590;48.772;8.846;2023-03-15T11:33:29;0.80;;;0.80;;
253;SDS011;590;48.772;8.846;2023-03-15T11:36:04;0.87;;;0.53;;
253;SDS011;590;48.772;8.846;2023-03-15T11:38:40;0.60;;;0.50;;
253;SDS011;590;48.772;8.846;2023-03-15T11:41:12;1.20;;;0.80;;
253;SDS011;590;48.772;8.846;2023-03-15T11:43:50;2.00;;;0.80;;
253;SDS011;590;48.772;8.846;2023-03-15T11:46:29;1.53;;;1.40;;
253;SDS011;590;48.772;8.846;2023-03-15T11:49:02;0.73;;;0.57;;
253;SDS011;590;48.772;8.846;2023-03-15T11:51:37;0.83;;;0.70;;
253;SDS011;590;48.772;8.846;2023-03-15T11:54:08;1.10;;;0.60;;
253;SDS011;590;48.772;8.846;2023-03-15T11:56:44;0.70;;;0.50;;
253;SDS011;590;48.772;8.846;2023-03-15T11:59:15;0.60;;;0.60;;
253;SDS011;590;48.772;8.846;2023-03-15T12:01:46;1.30;;;0.63;;
253;SDS011;590;48.772;8.846;2023-03-15T12:04:27;1.30;;;0.53;;
253;SDS011;590;48.772;8.846;2023-03-15T12:07:24;1.60;;;0.70;;
253;SDS011;590;48.772;8.846;2023-03-15T12:10:30;0.87;;;0.53;;
253;SDS011;590;48.772;8.846;2023-03-15T12:13:05;0.70;;;0.50;;
253;SDS011;590;48.772;8.846;2023-03-15T12:15:41;0.63;;;0.50;;
253;SDS011;590;48.772;8.846;2023-03-15T12:18:19;1.30;;;0.50;;
253;SDS011;590;48.772;8.846;2023-03-15T12:20:55;0.60;;;0.50;;
253;SDS011;590;48.772;8.846;2023-03-15T12:23:37;0.90;;;0.57;;
253;SDS011;590;48.772;8.846;2023-03-15T12:26:11;0.73;;;0.40;;
253;SDS011;590;48.772;8.846;2023-03-15T12:29:03;0.80;;;0.50;;
253;SDS011;590;48.772;8.846;2023-03-15T12:31:54;0.67;;;0.67;;
253;SDS011;590;48.772;8.846;2023-03-15T12:34:29;0.70;;;0.67;;
253;SDS011;590;48.772;8.846;2023-03-15T12:37:04;0.60;;;0.60;;
253;SDS011;590;48.772;8.846;2023-03-15T12:39:35;0.50;;;0.40;;
253;SDS011;590;48.772;8.846;2023-03-15T12:42:10;0.80;;;0.57;;
253;SDS011;590;48.772;8.846;2023-03-15T12:50:53;0.57;;;0.50;;
253;SDS011;590;48.772;8.846;2023-03-15T12:53:28;0.90;;;0.77;;
253;SDS011;590;48.772;8.846;2023-03-15T12:56:26;2.00;;;0.70;;
253;SDS011;590;48.772;8.846;2023-03-15T12:59:14;0.80;;;0.60;;
253;SDS011;590;48.772;8.846;2023-03-15T13:01:46;1.73;;;0.60;;
253;SDS011;590;48.772;8.846;2023-03-15T13:04:15;0.90;;;0.67;;
253;SDS011;590;48.772;8.846;2023-03-15T13:06:46;0.57;;;0.50;;
253;SDS011;590;48.772;8.846;2023-03-15T13:09:26;2.83;;;0.60;;
253;SDS011;590;48.772;8.846;2023-03-15T13:12:11;1.50;;;0.50;;
253;SDS011;590;48.772;8.846;2023-03-15T13:14:56;0.83;;;0.50;;
253;SDS011;590;48.772;8.846;2023-03-15T13:17:31;1.30;;;0.60;;
253;SDS011;590;48.772;8.846;2023-03-15T13:20:12;0.80;;;0.60;;
253;SDS011;590;48.772;8.846;2023-03-15T13:22:49;0.83;;;0.50;;
253;SDS011;590;48.772;8.846;2023-03-15T13:25:24;1.80;;;0.70;;
253;SDS011;590;48.772;8.846;2023-03-15T13:28:00;0.80;;;0.60;;
253;SDS011;590;48.772;8.846;2023-03-15T13:30:35;0.70;;;0.63;;
253;SDS011;590;48.772;8.846;2023-03-15T13:33:09;1.20;;;0.57;;
253;SDS011;590;48.772;8.846;2023-03-15T13:35:45;0.63;;;0.60;;
253;SDS011;590;48.772;8.846;2023-03-15T13:38:21;0.90;;;0.50;;
253;SDS011;590;48.772;8.846;2023-03-15T13:40:56;1.40;;;0.60;;
253;SDS011;590;48.772;8.846;2023-03-15T13:43:26;0.90;;;0.80;;
253;SDS011;590;48.772;8.846;2023-03-15T13:45:58;1.07;;;0.60;;
253;SDS011;590;48.772;8.846;2023-03-15T13:48:28;1.03;;;0.60;;
253;SDS011;590;48.772;8.846;2023-03-15T13:50:59;1.73;;;0.70;;
253;SDS011;590;48.772;8.846;2023-03-15T13:53:32;0.90;;;0.80;;
253;SDS011;590;48.772;8.846;2023-03-15T13:56:15;0.57;;;0.50;;
253;SDS011;590;48.772;8.846;2023-03-15T13:58:44;0.90;;;0.60;;
253;SDS011;590;48.772;8.846;2023-03-15T14:01:14;0.83;;;0.80;;
253;SDS011;590;48.772;8.846;2023-03-15T14:03:46;0.80;;;0.70;;
253;SDS011;590;48.772;8.846;2023-03-15T14:06:20;0.77;;;0.70;;
253;SDS011;590;48.772;8.846;2023-03-15T14:08:50;0.57;;;0.53;;
253;SDS011;590;48.772;8.846;2023-03-15T14:11:31;0.67;;;0.50;;
253;SDS011;590;48.772;8.846;2023-03-15T14:14:13;0.70;;;0.67;;
253;SDS011;590;48.772;8.846;2023-03-15T14:16:52;1.00;;;0.63;;
253;SDS011;590;48.772;8.846;2023-03-15T14:19:31;0.70;;;0.63;;
253;SDS011;590;48.772;8.846;2023-03-15T14:22:03;1.27;;;0.90;;
253;SDS011;590;48.772;8.846;2023-03-15T14:24:41;2.20;;;0.70;;
253;SDS011;590;48.772;8.846;2023-03-15T14:27:13;0.80;;;0.67;;
253;SDS011;590;48.772;8.846;2023-03-15T14:29:44;1.17;;;0.70;;
253;SDS011;590;48.772;8.846;2023-03-15T14:32:23;0.80;;;0.77;;
253;SDS011;590;48.772;8.846;2023-03-15T14:35:02;1.00;;;0.70;;
253;SDS011;590;48.772;8.846;2023-03-15T14:37:34;0.70;;;0.60;;
253;SDS011;590;48.772;8.846;2023-03-15T14:40:05;1.70;;;0.90;;
253;SDS011;590;48.772;8.846;2023-03-15T14:42:40;0.57;;;0.53;;
253;SDS011;590;48.772;8.846;2023-03-15T14:45:08;0.60;;;0.50;;
253;SDS011;590;48.772;8.846;2023-03-15T14:47:40;0.80;;;0.63;;
253;SDS011;590;48.772;8.846;2023-03-15T14:50:22;1.00;;;0.77;;
253;SDS011;590;48.772;8.846;2023-03-15T14:52:52;1.23;;;0.87;;
253;SDS011;590;48.772;8.846;2023-03-15T14:55:23;0.90;;;0.60;;
253;SDS011;590;48.772;8.846;2023-03-15T14:57:54;0.90;;;0.73;;
253;SDS011;590;48.772;8.846;2023-03-15T15:00:23;0.60;;;0.50;;
253;SDS011;590;48.772;8.846;2023-03-15T15:02:52;1.77;;;0.80;;
253;SDS011;590;48.772;8.846;2023-03-15T15:05:22;0.70;;;0.60;;
253;SDS011;590;48.772;8.846;2023-03-15T15:07:55;0.90;;;0.80;;
253;SDS011;590;48.772;8.846;2023-03-15T15:10:27;1.17;;;0.90;;
253;SDS011;590;48.772;8.846;2023-03-15T15:12:55;1.37;;;0.80;;
253;SDS011;590;48.772;8.846;2023-03-15T15:15:32;0.70;;;0.53;;
253;SDS011;590;48.772;8.846;2023-03-15T15:18:21;1.77;;;1.03;;
253;SDS011;590;48.772;8.846;2023-03-15T15:20:50;0.63;;;0.60;;
253;SDS011;590;48.772;8.846;2023-03-15T15:23:21;0.50;;;0.47;;
253;SDS011;590;48.772;8.846;2023-03-15T15:25:52;0.60;;;0.50;;
253;SDS011;590;48.772;8.846;2023-03-15T15:28:22;0.60;;;0.50;;
253;SDS011;590;48.772;8.846;2023-03-15T15:31:01;0.70;;;0.60;;
253;SDS011;590;48.772;8.846;2023-03-15T15:33:31;0.73;;;0.67;;
253;SDS011;590;48.772;8.846;2023-03-15T15:36:00;0.70;;;0.70;;
253;SDS011;590;48.772;8.846;2023-03-15T15:38:29;0.60;;;0.60;;
253;SDS011;590;48.772;8.846;2023-03-15T15:41:04;0.60;;;0.60;;
253;SDS011;590;48.772;8.846;2023-03-15T15:43:32;0.63;;;0.57;;
253;SDS011;590;48.772;8.846;2023-03-15T15:46:00;0.60;;;0.60;;
253;SDS011;590;48.772;8.846;2023-03-15T15:48:28;0.83;;;0.77;;
253;SDS011;590;48.772;8.846;2023-03-15T15:50:58;0.80;;;0.70;;
253;SDS011;590;48.772;8.846;2023-03-15T15:53:26;0.70;;;0.70;;
253;SDS011;590;48.772;8.846;2023-03-15T15:55:58;0.80;;;0.67;;
253;SDS011;590;48.772;8.846;2023-03-15T15:58:26;0.60;;;0.50;;
253;SDS011;590;48.772;8.846;2023-03-15T16:00:54;1.23;;;0.63;;
253;SDS011;590;48.772;8.846;2023-03-15T16:03:22;0.70;;;0.60;;
253;SDS011;590;48.772;8.846;2023-03-15T16:05:51;1.27;;;0.70;;
253;SDS011;590;48.772;8.846;2023-03-15T16:08:21;0.70;;;0.52;;
253;SDS011;590;48.772;8.846;2023-03-15T16:10:51;0.60;;;0.50;;
253;SDS011;590;48.772;8.846;2023-03-15T16:13:19;0.77;;;0.57;;
253;SDS011;590;48.772;8.846;2023-03-15T16:15:48;0.57;;;0.57;;
253;SDS011;590;48.772;8.846;2023-03-15T16:18:16;0.80;;;0.70;;
253;SDS011;590;48.772;8.846;2023-03-15T16:20:44;1.00;;;0.63;;